Time;durP1;ratioP1;P1;durP2;ratioP2;P2;SDS_P1;SDS_P2;PMS_P1;PMS_P2;Temp;Humidity;BMP_temperature;BMP_pressure;BME280_temperature;BME280_humidity;BME280_pressure;Samples;Min_cycle;Max_cycle;Signal;HPM_P1;HPM_P2
2024/03/25 00:00:20;;;;;;;9.40;2.30;;;5.70;99.90;;;;;;5026298;28;20477;-31
2024/03/25 00:02:46;;;;;;;8.60;2.35;;;5.70;99.90;;;;;;5028194;28;20108;-33
2024/03/25 00:05:14;;;;;;;12.75;2.88;;;5.60;99.90;;;;;;5029360;28;20059;-35
2024/03/25 00:07:40;;;;;;;6.97;1.65;;;5.60;99.90;;;;;;5015464;28;20026;-34
2024/03/25 00:10:08;;;;;;;8.30;2.03;;;5.60;99.90;;;;;;5025476;28;20034;-32
2024/03/25 00:12:36;;;;;;;6.72;1.80;;;5.60;99.90;;;;;;5008033;28;20043;-34
2024/03/25 00:15:02;;;;;;;7.25;2.10;;;5.60;99.90;;;;;;5020803;28;20021;-29
2024/03/25 00:17:28;;;;;;;7.15;1.85;;;5.60;99.90;;;;;;5026184;28;20132;-29
2024/03/25 00:19:53;;;;;;;6.57;1.50;;;5.60;99.90;;;;;;5022392;28;20025;-31
2024/03/25 00:22:20;;;;;;;5.40;1.80;;;5.60;99.90;;;;;;5019868;28;20079;-35
2024/03/25 00:24:47;;;;;;;7.55;2.10;;;5.60;99.90;;;;;;5031185;28;20184;-33
2024/03/25 00:27:13;;;;;;;9.23;2.22;;;5.60;99.90;;;;;;5020988;28;20033;-33
2024/03/25 00:29:39;;;;;;;7.25;1.60;;;5.60;99.90;;;;;;5022806;28;20126;-33
2024/03/25 00:32:05;;;;;;;2.38;1.40;;;5.50;99.90;;;;;;5011484;28;20136;-32
2024/03/25 00:34:32;;;;;;;6.07;1.83;;;5.50;99.90;;;;;;5015902;28;20030;-34
2024/03/25 00:36:58;;;;;;;7.20;1.63;;;5.50;99.90;;;;;;5025361;28;20029;-34
2024/03/25 00:39:23;;;;;;;5.85;1.80;;;5.50;99.90;;;;;;5029383;28;20352;-34
2024/03/25 00:41:49;;;;;;;10.98;1.85;;;5.50;99.90;;;;;;5032264;28;20029;-30
2024/03/25 00:44:20;;;;;;;5.55;1.33;;;5.60;99.90;;;;;;5018211;28;20476;-36
2024/03/25 00:46:46;;;;;;;8.63;3.08;;;5.60;99.90;;;;;;5031746;28;20033;-30
2024/03/25 00:49:11;;;;;;;6.50;1.77;;;5.60;99.90;;;;;;5035699;28;20052;-30
2024/03/25 00:51:37;;;;;;;6.20;1.70;;;5.50;99.90;;;;;;5033161;28;20552;-32
2024/03/25 00:54:05;;;;;;;9.40;2.55;;;5.50;99.90;;;;;;5036957;28;20173;-36
2024/03/25 00:56:31;;;;;;;5.65;1.50;;;5.50;99.90;;;;;;5020746;28;20029;-32
2024/03/25 00:59:02;;;;;;;4.68;1.35;;;5.50;99.90;;;;;;5006704;28;20438;-35
2024/03/25 01:01:31;;;;;;;3.92;1.35;;;5.40;99.90;;;;;;5037274;28;20037;-33
2024/03/25 01:03:57;;;;;;;3.45;1.10;;;5.40;99.90;;;;;;5040013;28;20079;-34
2024/03/25 01:06:23;;;;;;;5.72;1.60;;;5.40;99.90;;;;;;5018208;28;20033;-35
2024/03/25 01:08:49;;;;;;;6.68;1.45;;;5.40;99.90;;;;;;5002308;28;20037;-35
2024/03/25 01:11:15;;;;;;;8.32;1.55;;;5.40;99.90;;;;;;5030759;28;20048;-35
2024/03/25 01:13:41;;;;;;;6.22;1.40;;;5.30;99.90;;;;;;5020042;28;20076;-35
2024/03/25 01:16:09;;;;;;;3.72;1.17;;;5.30;99.90;;;;;;5024952;28;20034;-36
2024/03/25 01:18:35;;;;;;;7.50;1.42;;;5.30;99.90;;;;;;5041484;28;20029;-31
2024/03/25 01:21:00;;;;;;;5.88;1.50;;;5.30;99.90;;;;;;5029451;28;20033;-34
2024/03/25 01:23:26;;;;;;;6.68;2.15;;;5.20;99.90;;;;;;5039214;28;20037;-31
2024/03/25 01:25:52;;;;;;;9.60;1.50;;;5.20;99.90;;;;;;5030306;28;20078;-33
2024/03/25 01:28:17;;;;;;;6.07;1.60;;;5.20;99.90;;;;;;5016692;28;20629;-34
2024/03/25 01:30:43;;;;;;;8.43;1.50;;;5.20;99.90;;;;;;5025351;28;20080;-32
2024/03/25 01:33:09;;;;;;;8.68;1.92;;;5.20;99.90;;;;;;5025176;28;20045;-31
2024/03/25 01:35:35;;;;;;;11.57;2.47;;;5.20;99.90;;;;;;5023881;28;20175;-34
2024/03/25 01:38:01;;;;;;;6.45;2.00;;;5.20;99.90;;;;;;5030280;28;20031;-30
2024/03/25 01:40:26;;;;;;;8.40;2.20;;;5.20;99.90;;;;;;5021513;28;20025;-34
2024/03/25 01:42:56;;;;;;;4.85;1.60;;;5.20;99.90;;;;;;5031878;28;20025;-34
2024/03/25 01:45:22;;;;;;;7.55;1.90;;;5.20;99.90;;;;;;5021131;28;20484;-34
2024/03/25 01:47:47;;;;;;;8.13;1.58;;;5.20;99.90;;;;;;5031447;28;20032;-34
2024/03/25 01:50:13;;;;;;;5.43;1.65;;;5.10;99.90;;;;;;5020159;28;20033;-36
2024/03/25 01:52:39;;;;;;;3.88;1.30;;;5.10;99.90;;;;;;5027105;28;20766;-35
2024/03/25 01:55:08;;;;;;;6.30;1.98;;;5.10;99.90;;;;;;5040683;28;20025;-32
2024/03/25 01:57:34;;;;;;;3.67;1.40;;;5.10;99.90;;;;;;5027665;28;20820;-36
2024/03/25 01:59:59;;;;;;;7.85;1.90;;;5.10;99.90;;;;;;5040257;28;20025;-34
2024/03/25 02:02:25;;;;;;;5.10;1.70;;;5.10;99.90;;;;;;5028277;28;20115;-32
2024/03/25 02:04:52;;;;;;;7.70;2.08;;;5.10;99.90;;;;;;5038961;28;20024;-33
2024/03/25 02:07:23;;;;;;;7.68;2.15;;;5.10;99.90;;;;;;5033903;28;20146;-33
2024/03/25 02:09:58;;;;;;;3.10;1.33;;;5.10;99.90;;;;;;5023836;28;20140;-29
2024/03/25 02:12:24;;;;;;;5.25;1.70;;;5.00;99.90;;;;;;5025969;28;20032;-35
2024/03/25 02:14:49;;;;;;;8.27;2.08;;;5.00;99.90;;;;;;5030617;28;20026;-33
2024/03/25 02:17:15;;;;;;;7.75;2.15;;;5.00;99.90;;;;;;5024865;28;20602;-33
2024/03/25 02:19:41;;;;;;;6.60;1.92;;;5.00;99.90;;;;;;5030618;28;20500;-32
2024/03/25 02:22:07;;;;;;;5.93;2.28;;;5.00;99.90;;;;;;5010316;28;20052;-29
2024/03/25 02:24:34;;;;;;;9.88;2.33;;;5.00;99.90;;;;;;5016648;28;20030;-31
2024/03/25 02:26:59;;;;;;;6.72;2.40;;;5.00;99.90;;;;;;5017475;28;20029;-33
2024/03/25 02:29:36;;;;;;;6.38;1.67;;;5.00;99.90;;;;;;5029290;28;20091;-34
2024/03/25 02:32:01;;;;;;;6.55;1.63;;;5.00;99.90;;;;;;5018052;28;20044;-30
2024/03/25 02:34:27;;;;;;;6.63;2.05;;;5.10;99.90;;;;;;5023628;28;20033;-40
2024/03/25 02:36:53;;;;;;;7.75;2.53;;;5.10;99.90;;;;;;5005157;28;20037;-33
2024/03/25 02:39:19;;;;;;;7.88;2.15;;;5.00;99.90;;;;;;5021831;28;20059;-35
2024/03/25 02:41:46;;;;;;;8.52;2.10;;;5.10;99.90;;;;;;5017985;28;20638;-31
2024/03/25 02:44:12;;;;;;;6.20;1.70;;;5.00;99.90;;;;;;5032174;28;20473;-33
2024/03/25 02:46:40;;;;;;;6.40;2.40;;;5.10;99.90;;;;;;5020000;28;20025;-34
2024/03/25 02:49:05;;;;;;;11.45;2.63;;;5.00;99.90;;;;;;5026468;28;20033;-31
2024/03/25 02:51:31;;;;;;;7.78;1.80;;;5.00;99.90;;;;;;5035733;28;20127;-32
2024/03/25 02:53:56;;;;;;;4.70;1.70;;;5.10;99.90;;;;;;5016726;28;20029;-32
2024/03/25 02:56:22;;;;;;;8.65;2.80;;;5.10;99.90;;;;;;5030081;28;20064;-34
2024/03/25 02:58:47;;;;;;;7.88;2.17;;;5.10;99.90;;;;;;5026170;28;20029;-33
2024/03/25 03:01:15;;;;;;;8.00;2.10;;;5.20;99.90;;;;;;5024369;28;20423;-33
2024/03/25 03:03:40;;;;;;;7.45;2.58;;;5.20;99.90;;;;;;5013393;28;20132;-31
2024/03/25 03:06:06;;;;;;;4.82;1.70;;;5.30;99.90;;;;;;5026957;28;20771;-35
2024/03/25 03:08:31;;;;;;;4.93;1.88;;;5.30;99.90;;;;;;5020879;28;20044;-32
2024/03/25 03:10:57;;;;;;;9.70;2.30;;;5.30;99.90;;;;;;5029376;28;20778;-35
2024/03/25 03:13:23;;;;;;;11.15;3.17;;;5.30;99.90;;;;;;5017328;28;20959;-30
2024/03/25 03:15:48;;;;;;;7.55;2.13;;;5.20;99.90;;;;;;5030700;28;20029;-32
2024/03/25 03:18:14;;;;;;;10.70;2.70;;;5.20;99.90;;;;;;5002094;28;20036;-36
2024/03/25 03:20:39;;;;;;;7.03;2.25;;;5.20;99.90;;;;;;5033703;28;20743;-35
2024/03/25 03:23:05;;;;;;;7.80;2.22;;;5.10;99.90;;;;;;5005858;28;20294;-32
2024/03/25 03:25:30;;;;;;;4.07;1.52;;;5.10;99.90;;;;;;5029868;28;20747;-35
2024/03/25 03:27:56;;;;;;;4.00;2.03;;;5.10;99.90;;;;;;5007815;28;20029;-34
2024/03/25 03:30:22;;;;;;;9.90;2.00;;;5.10;99.90;;;;;;5031595;28;20678;-34
2024/03/25 03:32:47;;;;;;;10.10;2.05;;;5.10;99.90;;;;;;5020976;28;20033;-29
2024/03/25 03:35:13;;;;;;;7.78;2.28;;;5.10;99.90;;;;;;5031131;28;20052;-35
2024/03/25 03:37:38;;;;;;;7.18;1.90;;;5.00;99.90;;;;;;5026308;28;20134;-33
2024/03/25 03:40:06;;;;;;;4.45;1.55;;;5.00;99.90;;;;;;5028769;28;20119;-31
2024/03/25 03:42:31;;;;;;;5.38;1.80;;;5.00;99.90;;;;;;5037131;28;20064;-35
2024/03/25 03:44:57;;;;;;;7.53;2.17;;;4.90;99.90;;;;;;5038569;28;20133;-33
2024/03/25 03:47:22;;;;;;;4.40;1.73;;;4.90;99.90;;;;;;5033391;28;20484;-30
2024/03/25 03:49:48;;;;;;;8.95;2.60;;;4.90;99.90;;;;;;5029768;28;20049;-34
2024/03/25 03:52:13;;;;;;;8.05;1.80;;;4.80;99.90;;;;;;5032838;28;20037;-32
2024/03/25 03:54:39;;;;;;;9.73;2.10;;;4.70;99.90;;;;;;5023909;28;20029;-33
2024/03/25 03:57:05;;;;;;;6.65;1.90;;;4.70;99.90;;;;;;5033396;28;20032;-36
2024/03/25 03:59:31;;;;;;;7.22;2.55;;;4.70;99.90;;;;;;5022229;28;20021;-35
2024/03/25 04:01:56;;;;;;;6.22;2.47;;;4.70;99.90;;;;;;5034558;28;20033;-34
2024/03/25 04:04:22;;;;;;;7.13;2.15;;;4.60;99.90;;;;;;5022007;28;20025;-36
2024/03/25 04:06:53;;;;;;;5.40;1.90;;;4.60;99.90;;;;;;5034278;28;20025;-33
2024/03/25 04:09:20;;;;;;;8.10;2.33;;;4.60;99.90;;;;;;5021843;28;20025;-29
2024/03/25 04:11:45;;;;;;;8.70;1.92;;;4.60;99.90;;;;;;5034008;28;20056;-32
2024/03/25 04:14:11;;;;;;;5.43;2.13;;;4.50;99.90;;;;;;5011275;28;20385;-33
2024/03/25 04:16:36;;;;;;;5.88;2.13;;;4.50;99.90;;;;;;5015996;28;20543;-31
2024/03/25 04:19:02;;;;;;;8.30;2.05;;;4.50;99.90;;;;;;5015393;28;20503;-32
2024/03/25 04:21:27;;;;;;;5.32;1.95;;;4.50;99.90;;;;;;5020889;28;20071;-33
2024/03/25 04:23:53;;;;;;;6.90;2.28;;;4.40;99.90;;;;;;5032345;28;20037;-31
2024/03/25 04:26:19;;;;;;;4.60;2.00;;;4.40;99.90;;;;;;5025257;28;20021;-32
2024/03/25 04:28:45;;;;;;;5.82;2.05;;;4.40;99.90;;;;;;5019577;28;20048;-30
2024/03/25 04:31:10;;;;;;;5.38;2.75;;;4.40;99.90;;;;;;5012552;28;20133;-31
2024/03/25 04:33:36;;;;;;;4.70;2.33;;;4.30;99.90;;;;;;5033445;28;20045;-31
2024/03/25 04:36:02;;;;;;;6.30;1.65;;;4.30;99.90;;;;;;5010629;28;20509;-35
2024/03/25 04:38:30;;;;;;;5.53;1.95;;;4.30;99.90;;;;;;5024884;28;20384;-33
2024/03/25 04:40:59;;;;;;;5.57;2.38;;;4.20;99.90;;;;;;5022210;28;20140;-30
2024/03/25 04:43:28;;;;;;;4.65;2.10;;;4.20;99.90;;;;;;5027103;28;20313;-35
2024/03/25 04:45:53;;;;;;;5.78;2.00;;;4.20;99.90;;;;;;5024315;28;20049;-34
2024/03/25 04:48:19;;;;;;;7.53;2.45;;;4.20;99.90;;;;;;5028546;28;20148;-29
2024/03/25 04:50:47;;;;;;;9.35;2.13;;;4.20;99.90;;;;;;5041628;28;20025;-35
2024/03/25 04:53:13;;;;;;;8.25;2.20;;;4.20;99.90;;;;;;5027147;28;20051;-30
2024/03/25 04:55:38;;;;;;;10.40;2.70;;;4.20;99.90;;;;;;5040333;28;20029;-37
2024/03/25 04:58:04;;;;;;;8.00;2.70;;;4.20;99.90;;;;;;5035072;28;20033;-31
2024/03/25 05:00:29;;;;;;;9.25;3.67;;;4.20;99.90;;;;;;5023373;28;20029;-31
2024/03/25 05:02:58;;;;;;;8.18;3.00;;;4.10;99.90;;;;;;5020739;28;20115;-31
2024/03/25 05:05:24;;;;;;;4.70;2.85;;;4.10;99.90;;;;;;5034961;28;20043;-35
2024/03/25 05:07:54;;;;;;;6.68;2.90;;;4.10;99.90;;;;;;5024456;28;20029;-31
2024/03/25 05:10:20;;;;;;;8.60;2.85;;;4.10;99.90;;;;;;5032455;28;20127;-34
2024/03/25 05:12:47;;;;;;;5.28;2.63;;;4.10;99.90;;;;;;5024230;28;20130;-32
2024/03/25 05:15:13;;;;;;;6.90;2.80;;;4.10;99.90;;;;;;5023619;28;20068;-35
2024/03/25 05:17:38;;;;;;;6.53;2.92;;;4.10;99.90;;;;;;5022795;28;20196;-31
2024/03/25 05:20:04;;;;;;;6.53;2.95;;;4.10;99.90;;;;;;5032872;28;20112;-32
2024/03/25 05:22:30;;;;;;;9.30;3.53;;;4.10;99.90;;;;;;5013083;28;20563;-36
2024/03/25 05:24:56;;;;;;;5.13;2.35;;;4.10;99.90;;;;;;5015000;28;20037;-31
2024/03/25 05:27:21;;;;;;;6.15;2.88;;;4.00;99.90;;;;;;5039090;28;20671;-30
2024/03/25 05:29:49;;;;;;;8.48;4.00;;;4.00;99.90;;;;;;5025872;28;20660;-30
2024/03/25 05:32:16;;;;;;;7.20;2.88;;;4.00;99.90;;;;;;5021712;28;20054;-30
2024/03/25 05:34:42;;;;;;;6.55;2.90;;;4.00;99.90;;;;;;5030836;28;20039;-33
2024/03/25 05:37:07;;;;;;;5.72;2.50;;;4.00;99.90;;;;;;5019928;28;20033;-29
2024/03/25 05:39:33;;;;;;;6.75;2.78;;;4.00;99.90;;;;;;5030556;28;20035;-32
2024/03/25 05:41:58;;;;;;;6.72;2.60;;;3.90;99.90;;;;;;5022147;28;20501;-32
2024/03/25 05:44:24;;;;;;;6.70;2.70;;;3.90;99.90;;;;;;5026381;28;20095;-32
2024/03/25 05:46:52;;;;;;;5.78;2.65;;;3.90;99.90;;;;;;5025528;28;20037;-33
2024/03/25 05:49:18;;;;;;;6.18;2.60;;;4.00;99.90;;;;;;5024848;28;20029;-32
2024/03/25 05:51:43;;;;;;;5.35;2.28;;;4.00;99.90;;;;;;5032951;28;20043;-33
2024/03/25 05:54:09;;;;;;;5.90;2.53;;;4.00;99.90;;;;;;5037068;28;20029;-32
2024/03/25 05:56:35;;;;;;;5.55;2.40;;;3.90;99.90;;;;;;5029922;28;20089;-33
2024/03/25 05:59:01;;;;;;;7.78;2.45;;;4.00;99.90;;;;;;5038985;28;20247;-33
2024/03/25 06:01:27;;;;;;;5.47;2.70;;;4.00;99.90;;;;;;5028451;28;20488;-31
2024/03/25 06:03:52;;;;;;;5.55;2.55;;;4.00;99.90;;;;;;5031340;28;20029;-32
2024/03/25 06:06:18;;;;;;;8.88;3.63;;;4.00;99.90;;;;;;5029338;28;20394;-30
2024/03/25 06:08:44;;;;;;;9.93;3.67;;;4.00;99.90;;;;;;5018604;28;20022;-33
2024/03/25 06:11:10;;;;;;;9.13;3.17;;;4.10;99.90;;;;;;5030991;28;20017;-35
2024/03/25 06:13:36;;;;;;;6.07;2.95;;;4.10;99.90;;;;;;5018055;28;20091;-30
2024/03/25 06:16:02;;;;;;;8.05;2.65;;;4.10;99.90;;;;;;5030850;28;20025;-33
2024/03/25 06:18:27;;;;;;;4.30;2.25;;;4.10;99.90;;;;;;5015438;28;20034;-34
2024/03/25 06:20:53;;;;;;;6.80;2.80;;;4.10;99.90;;;;;;5025681;28;20024;-35
2024/03/25 06:23:26;;;;;;;6.70;2.85;;;4.10;99.90;;;;;;5021391;28;20052;-32
2024/03/25 06:25:52;;;;;;;6.55;2.60;;;4.10;99.90;;;;;;5024244;28;20712;-32
2024/03/25 06:28:21;;;;;;;7.05;2.95;;;4.10;99.90;;;;;;5027902;28;20033;-37
2024/03/25 06:36:22;;;;;;;5.90;2.70;;;4.20;99.90;;;;;;5019358;28;20051;-34
2024/03/25 06:38:48;;;;;;;7.70;2.50;;;4.20;99.90;;;;;;5021137;28;20034;-34
2024/03/25 06:41:14;;;;;;;6.43;2.70;;;4.20;99.90;;;;;;5015598;28;20033;-32
2024/03/25 06:43:39;;;;;;;6.30;2.58;;;4.20;99.90;;;;;;5024825;28;20052;-30
2024/03/25 06:46:06;;;;;;;6.10;2.60;;;4.20;99.90;;;;;;5016728;28;20108;-31
2024/03/25 06:48:32;;;;;;;6.90;2.50;;;4.30;99.90;;;;;;5010315;28;20766;-31
2024/03/25 06:50:59;;;;;;;3.50;2.22;;;4.30;99.90;;;;;;5019784;28;20487;-32
2024/03/25 06:53:25;;;;;;;5.20;2.58;;;4.30;99.90;;;;;;5028331;28;20045;-34
2024/03/25 06:55:58;;;;;;;6.03;2.65;;;4.40;99.90;;;;;;5030835;28;20021;-31
2024/03/25 06:58:25;;;;;;;8.65;2.95;;;4.40;99.90;;;;;;5032409;28;20057;-34
2024/03/25 07:00:51;;;;;;;7.45;3.15;;;4.50;99.90;;;;;;5034342;28;20036;-36
2024/03/25 07:03:18;;;;;;;8.32;2.55;;;4.50;99.90;;;;;;5025277;28;20033;-32
2024/03/25 07:05:48;;;;;;;6.65;2.85;;;4.50;99.90;;;;;;5002812;28;20843;-34
2024/03/25 07:08:14;;;;;;;4.45;2.25;;;4.50;99.90;;;;;;5025870;28;20029;-36
2024/03/25 07:10:46;;;;;;;6.22;2.28;;;4.60;99.90;;;;;;5030578;28;20495;-34
2024/03/25 07:13:12;;;;;;;7.95;2.80;;;4.60;99.90;;;;;;5030249;28;20527;-33
2024/03/25 07:15:38;;;;;;;6.55;2.65;;;4.70;99.90;;;;;;5031162;28;20097;-34
2024/03/25 07:18:04;;;;;;;6.05;2.03;;;4.70;99.90;;;;;;5014248;28;20095;-34
2024/03/25 07:20:30;;;;;;;7.65;2.20;;;4.80;99.90;;;;;;5031166;28;20846;-35
2024/03/25 07:22:56;;;;;;;6.75;2.47;;;4.80;99.90;;;;;;5024593;28;20452;-32
2024/03/25 07:25:23;;;;;;;5.43;2.67;;;4.80;99.90;;;;;;5019220;28;20026;-38
2024/03/25 07:27:48;;;;;;;8.75;2.70;;;4.90;99.90;;;;;;5014868;28;20025;-35
2024/03/25 07:30:14;;;;;;;5.85;2.63;;;4.90;99.90;;;;;;5013012;28;20026;-31
2024/03/25 07:32:40;;;;;;;6.70;2.55;;;5.00;99.90;;;;;;5014193;28;20579;-33
2024/03/25 07:35:07;;;;;;;7.38;2.53;;;5.00;99.90;;;;;;5029139;28;20033;-32
2024/03/25 07:37:33;;;;;;;8.00;2.47;;;5.10;99.90;;;;;;5016133;28;20034;-36
2024/03/25 07:39:59;;;;;;;4.40;2.17;;;5.10;99.90;;;;;;5018558;28;20460;-34
2024/03/25 07:42:25;;;;;;;4.63;2.28;;;5.20;99.90;;;;;;5037961;28;20025;-33
2024/03/25 07:44:50;;;;;;;6.63;2.70;;;5.20;99.90;;;;;;5026719;28;20025;-34
2024/03/25 07:47:16;;;;;;;4.55;1.92;;;5.30;99.90;;;;;;5036583;28;20037;-33
2024/03/25 07:49:41;;;;;;;4.45;1.70;;;5.30;99.90;;;;;;5028734;28;20377;-36
2024/03/25 07:52:07;;;;;;;6.22;1.90;;;5.40;99.90;;;;;;5016734;28;20408;-33
2024/03/25 07:54:32;;;;;;;5.40;2.33;;;5.40;99.90;;;;;;5030354;28;20063;-34
2024/03/25 07:57:07;;;;;;;8.65;2.30;;;5.50;99.90;;;;;;5019461;28;20076;-31
2024/03/25 07:59:33;;;;;;;3.22;1.50;;;5.50;99.90;;;;;;5029919;28;20112;-29
2024/03/25 08:01:58;;;;;;;4.10;1.80;;;5.60;99.90;;;;;;5018711;28;20435;-33
2024/03/25 08:04:24;;;;;;;5.40;1.75;;;5.60;99.90;;;;;;5029961;28;20071;-34
2024/03/25 08:06:50;;;;;;;6.18;2.17;;;5.70;99.90;;;;;;5024277;28;20086;-34
2024/03/25 08:09:17;;;;;;;5.30;1.75;;;5.70;99.90;;;;;;5030030;28;20535;-36
2024/03/25 08:11:45;;;;;;;4.75;1.80;;;5.80;99.90;;;;;;5027027;28;20711;-33
2024/03/25 08:14:11;;;;;;;7.43;1.70;;;5.80;99.90;;;;;;5027318;28;20068;-33
2024/03/25 08:16:37;;;;;;;7.40;3.50;;;5.90;99.90;;;;;;5028750;28;20536;-33
2024/03/25 08:19:02;;;;;;;3.20;1.70;;;6.00;99.90;;;;;;5025189;28;20635;-34
2024/03/25 08:21:28;;;;;;;8.55;2.22;;;6.00;99.90;;;;;;5030611;28;20040;-34
2024/03/25 08:23:53;;;;;;;6.00;2.50;;;6.10;99.90;;;;;;5023704;28;20037;-32
2024/03/25 08:26:19;;;;;;;6.28;2.08;;;6.20;99.90;;;;;;5032753;28;20025;-36
2024/03/25 08:28:45;;;;;;;6.45;2.60;;;6.20;99.90;;;;;;5023638;28;20072;-31
2024/03/25 08:31:14;;;;;;;3.92;2.42;;;6.30;99.90;;;;;;5033007;28;20122;-31
2024/03/25 08:33:39;;;;;;;5.82;2.50;;;6.30;99.90;;;;;;5021692;28;20042;-36
2024/03/25 08:36:05;;;;;;;7.63;2.10;;;6.40;99.90;;;;;;5035071;28;20029;-34
2024/03/25 08:38:30;;;;;;;6.05;2.20;;;6.40;99.90;;;;;;5022273;28;20029;-32
2024/03/25 08:40:56;;;;;;;9.32;2.50;;;6.50;99.90;;;;;;5033549;28;20029;-33
2024/03/25 08:43:21;;;;;;;4.78;2.50;;;6.50;99.90;;;;;;5022147;28;20416;-32
2024/03/25 08:45:47;;;;;;;5.63;2.13;;;6.60;99.90;;;;;;5032630;28;20029;-29
2024/03/25 08:48:13;;;;;;;4.55;2.10;;;6.60;99.90;;;;;;5023734;28;20037;-35
2024/03/25 08:50:38;;;;;;;9.10;2.30;;;6.70;99.90;;;;;;5029869;28;20406;-33
2024/03/25 08:53:04;;;;;;;7.38;2.33;;;6.80;99.90;;;;;;5026206;28;20037;-36
2024/03/25 08:55:30;;;;;;;8.32;2.60;;;6.90;99.90;;;;;;5026015;28;20017;-34
2024/03/25 08:57:59;;;;;;;7.30;2.40;;;6.90;99.90;;;;;;5029052;28;20040;-35
2024/03/25 09:00:25;;;;;;;6.55;2.22;;;7.00;99.90;;;;;;5023792;28;20898;-34
2024/03/25 09:02:51;;;;;;;8.10;2.97;;;7.10;99.90;;;;;;5030299;28;20445;-32
2024/03/25 09:05:18;;;;;;;4.47;1.80;;;7.20;99.90;;;;;;5023165;28;20036;-33
2024/03/25 09:07:45;;;;;;;9.10;2.78;;;7.30;99.90;;;;;;5032694;28;20025;-31
2024/03/25 09:12:55;;;;;;;6.10;2.25;;;7.50;99.90;;;;;;5032484;28;20052;-31
2024/03/25 09:15:21;;;;;;;6.68;3.10;;;7.60;99.90;;;;;;5020350;28;20025;-34
2024/03/25 09:17:46;;;;;;;7.25;3.03;;;7.70;99.90;;;;;;5032082;28;20083;-33
2024/03/25 09:20:20;;;;;;;7.10;2.80;;;7.80;99.90;;;;;;5021233;28;20033;-36
2024/03/25 09:22:48;;;;;;;7.32;3.08;;;7.90;99.90;;;;;;5027630;28;20082;-34
2024/03/25 09:25:16;;;;;;;8.20;4.00;;;7.90;99.90;;;;;;5041089;28;20037;-31
2024/03/25 09:27:50;;;;;;;4.90;3.05;;;7.90;99.90;;;;;;5028063;28;20040;-34
2024/03/25 09:30:16;;;;;;;5.90;3.03;;;7.90;99.90;;;;;;5039819;28;20124;-31
2024/03/25 09:32:45;;;;;;;5.60;2.70;;;7.90;99.90;;;;;;5027655;28;20053;-36
2024/03/25 09:35:10;;;;;;;6.85;2.85;;;7.90;99.90;;;;;;5041573;28;20033;-35
2024/03/25 09:37:36;;;;;;;5.43;2.53;;;8.00;99.90;;;;;;5028488;28;20045;-36
2024/03/25 09:40:04;;;;;;;6.80;3.17;;;8.00;99.90;;;;;;5039575;28;20033;-33
2024/03/25 09:42:53;;;;;;;9.95;3.38;;;8.00;99.90;;;;;;5031378;28;20113;-33
2024/03/25 13:25:02;;;;;;;4.97;2.47;;;12.20;99.90;;;;;;5020131;28;20056;-86
2024/03/25 13:27:30;;;;;;;3.05;1.80;;;12.20;99.90;;;;;;5008406;28;20033;-85
2024/03/25 13:29:56;;;;;;;3.63;1.92;;;12.20;99.90;;;;;;5000804;28;20092;-85
2024/03/25 13:32:23;;;;;;;2.45;2.00;;;12.20;99.90;;;;;;4990985;28;20395;-84
2024/03/25 13:34:51;;;;;;;3.47;2.25;;;12.20;99.90;;;;;;5000963;28;20135;-86
2024/03/25 13:37:19;;;;;;;4.57;2.10;;;12.20;99.90;;;;;;5003767;28;20018;-86
2024/03/25 13:39:46;;;;;;;4.75;2.53;;;12.40;99.90;;;;;;5009342;28;20033;-86
2024/03/25 13:42:13;;;;;;;3.00;2.00;;;12.50;99.90;;;;;;5028639;28;20017;-88
2024/03/25 13:44:40;;;;;;;3.88;2.38;;;12.60;99.90;;;;;;5021407;28;20022;-87
2024/03/25 13:47:05;;;;;;;2.78;1.83;;;12.70;99.90;;;;;;5008443;28;20034;-85
2024/03/25 13:49:34;;;;;;;4.40;1.98;;;12.80;99.90;;;;;;5015221;28;20037;-86
2024/03/25 13:51:59;;;;;;;2.80;1.80;;;12.70;99.90;;;;;;5000841;28;20029;-86
2024/03/25 13:54:26;;;;;;;1.60;1.50;;;12.70;99.90;;;;;;5011946;28;20041;-84
2024/03/25 13:56:52;;;;;;;3.17;1.55;;;12.60;99.90;;;;;;4997693;28;20030;-84
2024/03/25 13:59:18;;;;;;;5.25;1.73;;;12.60;99.90;;;;;;5007614;28;20022;-83
2024/03/25 14:01:47;;;;;;;3.10;1.90;;;12.60;99.90;;;;;;4993543;28;20117;-82
2024/03/25 14:04:13;;;;;;;3.00;2.10;;;12.50;99.90;;;;;;5007372;28;20026;-85
2024/03/25 14:06:40;;;;;;;4.03;2.67;;;12.60;99.90;;;;;;5001915;28;20067;-84
2024/03/25 14:09:08;;;;;;;3.88;2.17;;;12.60;99.90;;;;;;4986830;28;20030;-86
2024/03/25 14:11:36;;;;;;;3.67;2.20;;;12.60;99.90;;;;;;4996093;28;20073;-86
2024/03/25 14:14:02;;;;;;;3.13;2.00;;;12.60;99.90;;;;;;5006923;28;20026;-84
2024/03/25 14:16:28;;;;;;;5.25;2.33;;;12.60;99.90;;;;;;4998675;28;20210;-86
2024/03/25 14:18:54;;;;;;;3.63;2.00;;;12.50;99.90;;;;;;5002592;28;20037;-85
2024/03/25 14:21:19;;;;;;;3.13;1.70;;;12.40;99.90;;;;;;5001726;28;20050;-90
2024/03/25 14:23:50;;;;;;;2.40;1.70;;;12.50;99.90;;;;;;4998218;28;20125;-84
2024/03/25 14:26:16;;;;;;;2.05;1.67;;;12.50;99.90;;;;;;5003003;28;20401;-84
2024/03/25 14:28:41;;;;;;;1.88;1.58;;;12.50;99.90;;;;;;4996323;28;20019;-84
2024/03/25 14:31:07;;;;;;;3.65;2.05;;;12.60;99.90;;;;;;4989110;28;20154;-85
2024/03/25 14:33:35;;;;;;;3.03;1.75;;;12.70;99.90;;;;;;4998457;28;20037;-84
2024/03/25 14:36:00;;;;;;;2.72;1.85;;;12.80;99.90;;;;;;4989230;28;20109;-83
2024/03/25 14:38:26;;;;;;;4.93;1.80;;;12.80;99.90;;;;;;4997698;28;20138;-87
2024/03/25 14:40:58;;;;;;;2.00;1.40;;;12.90;99.90;;;;;;4987535;28;20117;-84
2024/03/25 14:43:23;;;;;;;2.13;1.47;;;13.00;99.90;;;;;;4994352;28;20041;-88
2024/03/25 14:45:49;;;;;;;2.30;1.52;;;13.00;99.90;;;;;;5005739;28;20277;-85
2024/03/25 14:48:16;;;;;;;1.85;1.65;;;12.90;99.90;;;;;;4993575;28;20089;-85
2024/03/25 14:50:42;;;;;;;2.58;1.55;;;12.90;99.90;;;;;;5006194;28;20091;-83
2024/03/25 14:53:08;;;;;;;4.70;2.85;;;13.00;99.90;;;;;;5001479;28;20721;-83
2024/03/25 14:55:33;;;;;;;2.63;1.75;;;12.90;99.90;;;;;;4994202;28;20025;-85
2024/03/25 14:57:59;;;;;;;5.15;2.10;;;12.90;99.90;;;;;;5009719;28;20669;-85
2024/03/25 15:00:24;;;;;;;5.07;2.47;;;13.00;99.90;;;;;;4989964;28;20049;-83
2024/03/25 15:02:53;;;;;;;3.33;1.55;;;13.00;99.90;;;;;;4992417;28;20315;-86
2024/03/25 15:05:20;;;;;;;3.72;2.00;;;12.90;99.90;;;;;;5000769;28;20093;-85
2024/03/25 15:07:45;;;;;;;3.60;1.98;;;12.90;99.90;;;;;;5006171;28;20018;-86
2024/03/25 15:10:11;;;;;;;3.65;1.73;;;12.80;99.90;;;;;;4996734;28;20034;-83
2024/03/25 15:12:37;;;;;;;3.38;1.98;;;12.80;99.90;;;;;;5002415;28;20026;-86
2024/03/25 15:22:13;;;;;;;5.28;2.40;;;12.90;99.90;;;;;;4990593;28;20769;-86
2024/03/25 15:24:38;;;;;;;3.70;2.20;;;12.80;99.90;;;;;;4978851;28;20042;-86
2024/03/25 15:27:04;;;;;;;6.32;2.70;;;12.70;99.90;;;;;;4988492;28;20037;-85
2024/03/25 15:29:32;;;;;;;5.20;2.83;;;12.60;99.90;;;;;;5008958;28;20053;-89
2024/03/25 15:31:58;;;;;;;5.88;2.45;;;12.60;99.90;;;;;;4974692;28;20049;-84
2024/03/25 15:34:23;;;;;;;4.75;2.30;;;12.60;99.90;;;;;;5001715;28;20030;-86
2024/03/25 15:36:49;;;;;;;2.95;1.70;;;12.60;99.90;;;;;;4993506;28;20311;-86
2024/03/25 15:39:15;;;;;;;3.65;1.90;;;12.70;99.90;;;;;;4986723;28;20034;-87
2024/03/25 15:41:41;;;;;;;6.25;3.35;;;12.70;99.90;;;;;;4988053;28;20083;-84
2024/03/25 15:44:07;;;;;;;4.70;2.58;;;12.80;99.90;;;;;;4985294;28;20147;-89
2024/03/25 15:46:33;;;;;;;6.30;2.90;;;12.80;99.90;;;;;;4986067;28;20033;-84
2024/03/25 15:48:58;;;;;;;5.78;3.15;;;12.90;99.90;;;;;;4989454;28;20038;-85
2024/03/25 15:51:26;;;;;;;5.68;3.15;;;12.80;99.90;;;;;;4982612;28;20649;-84
2024/03/25 15:53:52;;;;;;;8.07;3.63;;;12.80;99.90;;;;;;5008857;28;20053;-86
2024/03/25 15:56:18;;;;;;;9.23;3.83;;;12.80;99.90;;;;;;4998561;28;20054;-82
2024/03/25 15:58:47;;;;;;;8.93;4.78;;;12.80;99.90;;;;;;4991053;28;20044;-84
2024/03/25 16:01:13;;;;;;;7.07;3.35;;;12.80;99.90;;;;;;5002398;28;20027;-83
2024/03/25 16:03:38;;;;;;;6.35;3.38;;;12.80;99.90;;;;;;4992109;28;20038;-84
2024/03/25 16:06:04;;;;;;;10.20;3.80;;;12.70;99.90;;;;;;4986753;28;20060;-85
2024/03/25 16:08:30;;;;;;;8.63;3.75;;;12.60;99.80;;;;;;5004430;28;20122;-88
2024/03/25 16:10:55;;;;;;;6.93;3.25;;;12.50;99.70;;;;;;5021301;23;20064;-83
2024/03/25 16:13:23;;;;;;;8.02;3.65;;;12.40;99.90;;;;;;5008925;28;20064;-86
2024/03/25 16:16:05;;;;;;;7.30;3.75;;;12.30;99.80;;;;;;4991301;28;20030;-84
2024/03/25 16:18:32;;;;;;;6.55;3.00;;;12.30;99.80;;;;;;4988744;28;20073;-84
2024/03/25 16:20:57;;;;;;;5.10;3.08;;;12.20;99.90;;;;;;5001796;28;20107;-83
2024/03/25 16:23:23;;;;;;;6.55;3.53;;;12.20;99.90;;;;;;5006296;28;20030;-84
2024/03/25 16:25:49;;;;;;;9.55;3.65;;;12.20;99.90;;;;;;5008173;28;20354;-85
2024/03/25 16:28:15;;;;;;;9.07;3.35;;;12.20;99.90;;;;;;5002142;28;20107;-82
2024/03/25 16:30:41;;;;;;;5.35;2.90;;;12.20;99.60;;;;;;5007415;28;20113;-84
2024/03/25 16:33:09;;;;;;;7.05;3.53;;;12.20;99.60;;;;;;5008053;28;20036;-85
2024/03/25 16:35:35;;;;;;;7.72;3.60;;;12.10;99.60;;;;;;5008302;28;20046;-86
2024/03/25 16:38:00;;;;;;;7.28;3.80;;;12.10;99.40;;;;;;5007756;28;20044;-83
2024/03/25 16:40:28;;;;;;;6.63;3.00;;;12.10;98.90;;;;;;5010196;28;20075;-84
2024/03/25 16:42:59;;;;;;;8.57;3.20;;;12.00;99.00;;;;;;5009779;28;20030;-83
2024/03/25 16:45:25;;;;;;;6.00;2.90;;;12.00;99.00;;;;;;4992933;28;20041;-82